sensor_id;sensor_type;location;lat;lon;timestamp;temperature;humidity
52016;DHT22;38032;53.326;6.472;2023-02-08T00:01:08;0.40;99.90
52016;DHT22;38032;53.326;6.472;2023-02-08T00:03:34;0.40;99.90
52016;DHT22;38032;53.326;6.472;2023-02-08T00:06:01;0.30;99.90
52016;DHT22;38032;53.326;6.472;2023-02-08T00:08:27;0.20;99.90
52016;DHT22;38032;53.326;6.472;2023-02-08T00:10:53;0.20;99.90
52016;DHT22;38032;53.326;6.472;2023-02-08T00:13:19;0.10;99.90
52016;DHT22;38032;53.326;6.472;2023-02-08T00:15:45;0.10;99.90
52016;DHT22;38032;53.326;6.472;2023-02-08T00:18:11;0.10;99.90
52016;DHT22;38032;53.326;6.472;2023-02-08T00:20:38;0.10;99.90
52016;DHT22;38032;53.326;6.472;2023-02-08T00:23:05;0.00;99.90
52016;DHT22;38032;53.326;6.472;2023-02-08T00:25:31;0.00;99.90
52016;DHT22;38032;53.326;6.472;2023-02-08T00:27:57;0.00;99.90
52016;DHT22;38032;53.326;6.472;2023-02-08T00:30:22;0.00;99.90
52016;DHT22;38032;53.326;6.472;2023-02-08T00:32:48;0.00;99.90
52016;DHT22;38032;53.326;6.472;2023-02-08T00:35:14;0.00;99.90
52016;DHT22;38032;53.326;6.472;2023-02-08T00:37:40;0.00;99.90
52016;DHT22;38032;53.326;6.472;2023-02-08T00:40:06;0.00;99.90
52016;DHT22;38032;53.326;6.472;2023-02-08T00:42:32;0.00;99.90
52016;DHT22;38032;53.326;6.472;2023-02-08T00:44:58;0.00;99.90
52016;DHT22;38032;53.326;6.472;2023-02-08T00:47:24;0.00;99.90
52016;DHT22;38032;53.326;6.472;2023-02-08T00:49:50;0.10;99.90
52016;DHT22;38032;53.326;6.472;2023-02-08T00:52:18;0.10;99.90
52016;DHT22;38032;53.326;6.472;2023-02-08T00:54:45;0.10;99.90
52016;DHT22;38032;53.326;6.472;2023-02-08T00:57:12;0.10;99.90
52016;DHT22;38032;53.326;6.472;2023-02-08T00:59:38;0.10;99.90
52016;DHT22;38032;53.326;6.472;2023-02-08T01:02:04;0.10;99.90
52016;DHT22;38032;53.326;6.472;2023-02-08T01:04:30;0.00;99.90
52016;DHT22;38032;53.326;6.472;2023-02-08T01:06:56;0.00;99.90
52016;DHT22;38032;53.326;6.472;2023-02-08T01:09:22;-0.10;99.90
52016;DHT22;38032;53.326;6.472;2023-02-08T01:11:48;-0.10;99.90
52016;DHT22;38032;53.326;6.472;2023-02-08T01:14:15;-0.10;99.90
52016;DHT22;38032;53.326;6.472;2023-02-08T01:16:41;-0.10;99.90
52016;DHT22;38032;53.326;6.472;2023-02-08T01:19:07;-0.10;99.90
52016;DHT22;38032;53.326;6.472;2023-02-08T01:21:36;-0.10;99.90
52016;DHT22;38032;53.326;6.472;2023-02-08T01:24:03;-0.20;99.90
52016;DHT22;38032;53.326;6.472;2023-02-08T01:26:30;-0.30;99.90
52016;DHT22;38032;53.326;6.472;2023-02-08T01:28:56;-0.40;99.90
52016;DHT22;38032;53.326;6.472;2023-02-08T01:31:25;-0.40;99.90
52016;DHT22;38032;53.326;6.472;2023-02-08T01:33:54;-0.40;99.90
52016;DHT22;38032;53.326;6.472;2023-02-08T01:36:19;-0.30;99.90
52016;DHT22;38032;53.326;6.472;2023-02-08T01:38:46;-0.30;99.90
52016;DHT22;38032;53.326;6.472;2023-02-08T01:41:19;-0.30;99.90
52016;DHT22;38032;53.326;6.472;2023-02-08T01:44:05;-0.30;99.90
52016;DHT22;38032;53.326;6.472;2023-02-08T01:46:34;-0.30;99.90
52016;DHT22;38032;53.326;6.472;2023-02-08T01:49:06;-0.30;99.90
52016;DHT22;38032;53.326;6.472;2023-02-08T01:51:38;-0.30;99.90
52016;DHT22;38032;53.326;6.472;2023-02-08T01:54:09;-0.40;99.90
52016;DHT22;38032;53.326;6.472;2023-02-08T01:56:38;-0.50;99.90
52016;DHT22;38032;53.326;6.472;2023-02-08T01:59:09;-0.50;99.90
52016;DHT22;38032;53.326;6.472;2023-02-08T02:01:38;-0.50;99.90
52016;DHT22;38032;53.326;6.472;2023-02-08T02:04:06;-0.50;99.90
52016;DHT22;38032;53.326;6.472;2023-02-08T02:06:36;-0.50;99.90
52016;DHT22;38032;53.326;6.472;2023-02-08T02:09:09;-0.50;99.90
52016;DHT22;38032;53.326;6.472;2023-02-08T02:11:37;-0.50;99.90
52016;DHT22;38032;53.326;6.472;2023-02-08T02:14:03;-0.50;99.90
52016;DHT22;38032;53.326;6.472;2023-02-08T02:16:29;-0.50;99.90
52016;DHT22;38032;53.326;6.472;2023-02-08T02:18:55;-0.50;99.90
52016;DHT22;38032;53.326;6.472;2023-02-08T02:21:43;-0.50;99.90
52016;DHT22;38032;53.326;6.472;2023-02-08T02:24:36;-0.50;99.90
52016;DHT22;38032;53.326;6.472;2023-02-08T02:32:32;-0.40;99.90
52016;DHT22;38032;53.326;6.472;2023-02-08T02:35:18;-0.40;99.90
52016;DHT22;38032;53.326;6.472;2023-02-08T02:37:58;-0.30;99.90
52016;DHT22;38032;53.326;6.472;2023-02-08T02:40:48;-0.30;99.90
52016;DHT22;38032;53.326;6.472;2023-02-08T02:43:25;-0.30;99.90
52016;DHT22;38032;53.326;6.472;2023-02-08T02:46:28;-0.30;99.90
52016;DHT22;38032;53.326;6.472;2023-02-08T02:51:59;-0.20;99.90
52016;DHT22;38032;53.326;6.472;2023-02-08T02:54:33;-0.20;99.90
52016;DHT22;38032;53.326;6.472;2023-02-08T02:57:02;-0.10;99.90
52016;DHT22;38032;53.326;6.472;2023-02-08T02:59:34;-0.10;99.90
52016;DHT22;38032;53.326;6.472;2023-02-08T03:02:02;-0.10;99.90
52016;DHT22;38032;53.326;6.472;2023-02-08T03:07:15;-0.10;99.90
52016;DHT22;38032;53.326;6.472;2023-02-08T03:18:03;-0.10;99.90
52016;DHT22;38032;53.326;6.472;2023-02-08T03:20:37;-0.10;99.90
52016;DHT22;38032;53.326;6.472;2023-02-08T03:25:50;-0.20;99.90
52016;DHT22;38032;53.326;6.472;2023-02-08T03:28:25;-0.20;99.90
52016;DHT22;38032;53.326;6.472;2023-02-08T03:31:04;-0.20;99.90
52016;DHT22;38032;53.326;6.472;2023-02-08T03:33:53;-0.30;99.90
52016;DHT22;38032;53.326;6.472;2023-02-08T03:36:48;-0.30;99.90
52016;DHT22;38032;53.326;6.472;2023-02-08T03:39:22;-0.30;99.90
52016;DHT22;38032;53.326;6.472;2023-02-08T03:41:52;-0.40;99.90
52016;DHT22;38032;53.326;6.472;2023-02-08T03:47:11;-0.60;99.90
52016;DHT22;38032;53.326;6.472;2023-02-08T03:49:38;-0.70;99.90
52016;DHT22;38032;53.326;6.472;2023-02-08T03:52:08;-0.70;99.90
52016;DHT22;38032;53.326;6.472;2023-02-08T03:54:39;-0.80;99.90
52016;DHT22;38032;53.326;6.472;2023-02-08T03:57:12;-0.80;99.90
52016;DHT22;38032;53.326;6.472;2023-02-08T03:59:41;-0.90;99.90
52016;DHT22;38032;53.326;6.472;2023-02-08T04:02:11;-0.90;99.90
52016;DHT22;38032;53.326;6.472;2023-02-08T04:04:42;-0.90;99.90
52016;DHT22;38032;53.326;6.472;2023-02-08T04:07:09;-0.90;99.90
52016;DHT22;38032;53.326;6.472;2023-02-08T04:09:35;-0.90;99.90
52016;DHT22;38032;53.326;6.472;2023-02-08T04:12:01;-0.80;99.90
52016;DHT22;38032;53.326;6.472;2023-02-08T04:14:27;-0.80;99.90
52016;DHT22;38032;53.326;6.472;2023-02-08T04:16:53;-0.80;99.90
52016;DHT22;38032;53.326;6.472;2023-02-08T04:19:18;-0.80;99.90
52016;DHT22;38032;53.326;6.472;2023-02-08T04:21:44;-0.80;99.90
52016;DHT22;38032;53.326;6.472;2023-02-08T04:24:10;-0.80;99.90
52016;DHT22;38032;53.326;6.472;2023-02-08T04:26:36;-0.80;99.90
52016;DHT22;38032;53.326;6.472;2023-02-08T04:29:02;-0.70;99.90
52016;DHT22;38032;53.326;6.472;2023-02-08T04:31:28;-0.80;99.90
52016;DHT22;38032;53.326;6.472;2023-02-08T04:33:54;-0.80;99.90
52016;DHT22;38032;53.326;6.472;2023-02-08T04:36:20;-0.80;99.90
52016;DHT22;38032;53.326;6.472;2023-02-08T04:38:46;-0.80;99.90
52016;DHT22;38032;53.326;6.472;2023-02-08T04:41:12;-0.90;99.90
52016;DHT22;38032;53.326;6.472;2023-02-08T04:43:37;-0.80;99.90
52016;DHT22;38032;53.326;6.472;2023-02-08T04:46:03;-0.80;99.90
52016;DHT22;38032;53.326;6.472;2023-02-08T04:48:29;-0.90;99.90
52016;DHT22;38032;53.326;6.472;2023-02-08T04:50:56;-0.90;99.90
52016;DHT22;38032;53.326;6.472;2023-02-08T04:53:23;-1.00;99.90
52016;DHT22;38032;53.326;6.472;2023-02-08T04:55:49;-0.90;99.90
52016;DHT22;38032;53.326;6.472;2023-02-08T04:58:15;-0.90;99.90
52016;DHT22;38032;53.326;6.472;2023-02-08T05:00:41;-0.90;99.90
52016;DHT22;38032;53.326;6.472;2023-02-08T05:03:07;-0.90;99.90
52016;DHT22;38032;53.326;6.472;2023-02-08T05:05:33;-0.90;99.90
52016;DHT22;38032;53.326;6.472;2023-02-08T05:07:59;-0.80;99.90
52016;DHT22;38032;53.326;6.472;2023-02-08T05:10:25;-0.80;99.90
52016;DHT22;38032;53.326;6.472;2023-02-08T05:12:51;-0.80;99.90
52016;DHT22;38032;53.326;6.472;2023-02-08T05:15:17;-0.80;99.90
52016;DHT22;38032;53.326;6.472;2023-02-08T05:17:43;-0.90;99.90
52016;DHT22;38032;53.326;6.472;2023-02-08T05:20:10;-0.80;99.90
52016;DHT22;38032;53.326;6.472;2023-02-08T05:22:36;-0.90;99.90
52016;DHT22;38032;53.326;6.472;2023-02-08T05:25:02;-0.90;99.90
52016;DHT22;38032;53.326;6.472;2023-02-08T05:27:28;-0.90;99.90
52016;DHT22;38032;53.326;6.472;2023-02-08T05:29:54;-0.90;99.90
52016;DHT22;38032;53.326;6.472;2023-02-08T05:32:20;-0.80;99.90
52016;DHT22;38032;53.326;6.472;2023-02-08T05:34:46;-0.80;99.90
52016;DHT22;38032;53.326;6.472;2023-02-08T05:37:12;-0.80;99.90
52016;DHT22;38032;53.326;6.472;2023-02-08T05:39:39;-0.80;99.90
52016;DHT22;38032;53.326;6.472;2023-02-08T05:42:05;-0.80;99.90
52016;DHT22;38032;53.326;6.472;2023-02-08T05:44:31;-0.80;99.90
52016;DHT22;38032;53.326;6.472;2023-02-08T05:46:57;-0.90;99.90
52016;DHT22;38032;53.326;6.472;2023-02-08T05:49:23;-0.90;99.90
52016;DHT22;38032;53.326;6.472;2023-02-08T05:51:49;-0.90;99.90
52016;DHT22;38032;53.326;6.472;2023-02-08T05:54:16;-0.90;99.90
52016;DHT22;38032;53.326;6.472;2023-02-08T05:56:42;-0.90;99.90
52016;DHT22;38032;53.326;6.472;2023-02-08T05:59:09;-1.00;99.90
52016;DHT22;38032;53.326;6.472;2023-02-08T06:01:35;-1.00;99.90
52016;DHT22;38032;53.326;6.472;2023-02-08T06:04:01;-1.00;99.90
52016;DHT22;38032;53.326;6.472;2023-02-08T06:06:27;-1.10;99.90
52016;DHT22;38032;53.326;6.472;2023-02-08T06:08:53;-1.10;99.90
52016;DHT22;38032;53.326;6.472;2023-02-08T06:11:20;-1.10;99.90
52016;DHT22;38032;53.326;6.472;2023-02-08T06:13:46;-1.10;99.90
52016;DHT22;38032;53.326;6.472;2023-02-08T06:16:13;-1.10;99.90
52016;DHT22;38032;53.326;6.472;2023-02-08T06:18:39;-1.10;99.90
52016;DHT22;38032;53.326;6.472;2023-02-08T06:21:05;-1.20;99.90
52016;DHT22;38032;53.326;6.472;2023-02-08T06:23:31;-1.20;99.90
52016;DHT22;38032;53.326;6.472;2023-02-08T06:25:57;-1.20;99.90
52016;DHT22;38032;53.326;6.472;2023-02-08T06:28:23;-1.20;99.90
52016;DHT22;38032;53.326;6.472;2023-02-08T06:30:50;-1.10;99.90
52016;DHT22;38032;53.326;6.472;2023-02-08T06:33:16;-1.20;99.90
52016;DHT22;38032;53.326;6.472;2023-02-08T06:35:46;-1.20;99.90
52016;DHT22;38032;53.326;6.472;2023-02-08T06:38:13;-1.20;99.90
52016;DHT22;38032;53.326;6.472;2023-02-08T06:40:39;-1.30;99.90
52016;DHT22;38032;53.326;6.472;2023-02-08T06:43:05;-1.30;99.90
52016;DHT22;38032;53.326;6.472;2023-02-08T06:45:31;-1.20;99.90
52016;DHT22;38032;53.326;6.472;2023-02-08T06:47:57;-1.20;99.90
52016;DHT22;38032;53.326;6.472;2023-02-08T06:50:22;-1.20;99.90
52016;DHT22;38032;53.326;6.472;2023-02-08T06:52:48;-1.20;99.90
52016;DHT22;38032;53.326;6.472;2023-02-08T06:55:15;-1.20;99.90
52016;DHT22;38032;53.326;6.472;2023-02-08T06:57:41;-1.20;99.90
52016;DHT22;38032;53.326;6.472;2023-02-08T07:00:07;-1.20;99.90
52016;DHT22;38032;53.326;6.472;2023-02-08T07:02:33;-1.20;99.90
52016;DHT22;38032;53.326;6.472;2023-02-08T07:04:59;-1.20;99.90
52016;DHT22;38032;53.326;6.472;2023-02-08T07:07:26;-1.10;99.90
52016;DHT22;38032;53.326;6.472;2023-02-08T07:09:52;-1.10;99.90
52016;DHT22;38032;53.326;6.472;2023-02-08T07:12:18;-1.10;99.90
52016;DHT22;38032;53.326;6.472;2023-02-08T07:14:45;-1.10;99.90
52016;DHT22;38032;53.326;6.472;2023-02-08T07:17:11;-1.00;99.90
52016;DHT22;38032;53.326;6.472;2023-02-08T07:19:37;-1.00;99.90
52016;DHT22;38032;53.326;6.472;2023-02-08T07:22:03;-1.00;99.90
52016;DHT22;38032;53.326;6.472;2023-02-08T07:24:35;-1.00;99.90
52016;DHT22;38032;53.326;6.472;2023-02-08T07:27:01;-0.90;99.90
52016;DHT22;38032;53.326;6.472;2023-02-08T07:29:29;-0.90;99.90
52016;DHT22;38032;53.326;6.472;2023-02-08T07:31:55;-0.90;99.90
52016;DHT22;38032;53.326;6.472;2023-02-08T07:34:21;-0.90;99.90
52016;DHT22;38032;53.326;6.472;2023-02-08T07:36:47;-0.80;99.90
52016;DHT22;38032;53.326;6.472;2023-02-08T07:39:14;-0.70;99.90
52016;DHT22;38032;53.326;6.472;2023-02-08T07:41:40;-0.70;99.90
52016;DHT22;38032;53.326;6.472;2023-02-08T07:44:06;-0.60;99.90
52016;DHT22;38032;53.326;6.472;2023-02-08T07:46:32;-0.50;99.90
52016;DHT22;38032;53.326;6.472;2023-02-08T07:48:58;-0.40;99.90
52016;DHT22;38032;53.326;6.472;2023-02-08T07:51:23;-0.50;99.90
52016;DHT22;38032;53.326;6.472;2023-02-08T07:53:50;-0.50;99.90
52016;DHT22;38032;53.326;6.472;2023-02-08T07:56:16;-0.40;99.90
52016;DHT22;38032;53.326;6.472;2023-02-08T07:58:42;-0.30;99.90
52016;DHT22;38032;53.326;6.472;2023-02-08T08:01:08;-0.10;99.90
52016;DHT22;38032;53.326;6.472;2023-02-08T08:03:34;0.10;99.90
52016;DHT22;38032;53.326;6.472;2023-02-08T08:06:00;0.30;99.90
52016;DHT22;38032;53.326;6.472;2023-02-08T08:08:26;0.40;99.90
52016;DHT22;38032;53.326;6.472;2023-02-08T08:10:51;0.70;99.90
52016;DHT22;38032;53.326;6.472;2023-02-08T08:13:17;0.90;99.90
52016;DHT22;38032;53.326;6.472;2023-02-08T08:15:43;1.00;99.90
52016;DHT22;38032;53.326;6.472;2023-02-08T08:18:09;1.10;99.90
52016;DHT22;38032;53.326;6.472;2023-02-08T08:20:35;1.10;99.90
52016;DHT22;38032;53.326;6.472;2023-02-08T08:23:01;1.40;99.90
52016;DHT22;38032;53.326;6.472;2023-02-08T08:25:27;1.70;99.90
52016;DHT22;38032;53.326;6.472;2023-02-08T08:27:53;1.90;99.90
52016;DHT22;38032;53.326;6.472;2023-02-08T08:30:19;2.10;99.90
52016;DHT22;38032;53.326;6.472;2023-02-08T08:32:46;2.20;99.90
52016;DHT22;38032;53.326;6.472;2023-02-08T08:35:13;2.20;99.90
52016;DHT22;38032;53.326;6.472;2023-02-08T08:37:39;2.30;99.90
52016;DHT22;38032;53.326;6.472;2023-02-08T08:40:05;2.50;99.90
52016;DHT22;38032;53.326;6.472;2023-02-08T08:42:33;2.70;99.90
52016;DHT22;38032;53.326;6.472;2023-02-08T08:45:01;3.10;99.90
52016;DHT22;38032;53.326;6.472;2023-02-08T08:47:27;3.60;99.90
52016;DHT22;38032;53.326;6.472;2023-02-08T08:49:53;4.30;99.90
52016;DHT22;38032;53.326;6.472;2023-02-08T08:52:19;4.80;99.90
52016;DHT22;38032;53.326;6.472;2023-02-08T08:54:45;5.40;99.90
52016;DHT22;38032;53.326;6.472;2023-02-08T08:57:10;6.30;99.90
52016;DHT22;38032;53.326;6.472;2023-02-08T08:59:36;7.40;99.90
52016;DHT22;38032;53.326;6.472;2023-02-08T09:02:02;8.70;99.90
52016;DHT22;38032;53.326;6.472;2023-02-08T09:04:28;9.80;99.90
52016;DHT22;38032;53.326;6.472;2023-02-08T09:06:54;11.00;99.90
52016;DHT22;38032;53.326;6.472;2023-02-08T09:09:21;12.10;99.90
52016;DHT22;38032;53.326;6.472;2023-02-08T09:11:47;12.90;96.30
52016;DHT22;38032;53.326;6.472;2023-02-08T09:14:14;13.30;91.90
52016;DHT22;38032;53.326;6.472;2023-02-08T09:16:41;13.60;88.00
52016;DHT22;38032;53.326;6.472;2023-02-08T09:19:09;13.80;83.90
52016;DHT22;38032;53.326;6.472;2023-02-08T09:21:35;14.10;79.70
52016;DHT22;38032;53.326;6.472;2023-02-08T09:24:02;14.40;77.20
52016;DHT22;38032;53.326;6.472;2023-02-08T09:26:28;14.40;75.20
52016;DHT22;38032;53.326;6.472;2023-02-08T09:28:54;14.40;73.70
52016;DHT22;38032;53.326;6.472;2023-02-08T09:31:24;14.60;73.10
52016;DHT22;38032;53.326;6.472;2023-02-08T09:33:52;14.70;71.70
52016;DHT22;38032;53.326;6.472;2023-02-08T09:36:19;14.80;70.70
52016;DHT22;38032;53.326;6.472;2023-02-08T09:38:46;14.80;69.50
52016;DHT22;38032;53.326;6.472;2023-02-08T09:46:57;13.70;68.30
52016;DHT22;38032;53.326;6.472;2023-02-08T09:49:31;13.70;68.90
52016;DHT22;38032;53.326;6.472;2023-02-08T09:52:00;13.80;69.10
52016;DHT22;38032;53.326;6.472;2023-02-08T09:54:32;13.80;69.20
52016;DHT22;38032;53.326;6.472;2023-02-08T09:57:04;14.00;68.50
52016;DHT22;38032;53.326;6.472;2023-02-08T09:59:32;14.30;68.30
52016;DHT22;38032;53.326;6.472;2023-02-08T10:04:51;15.00;66.30
52016;DHT22;38032;53.326;6.472;2023-02-08T10:07:20;15.20;65.00
52016;DHT22;38032;53.326;6.472;2023-02-08T10:09:46;15.60;65.80
52016;DHT22;38032;53.326;6.472;2023-02-08T10:15:13;16.20;63.70
52016;DHT22;38032;53.326;6.472;2023-02-08T10:17:50;16.40;63.30
52016;DHT22;38032;53.326;6.472;2023-02-08T10:25:51;16.20;60.30
52016;DHT22;38032;53.326;6.472;2023-02-08T10:31:17;14.80;59.40
52016;DHT22;38032;53.326;6.472;2023-02-08T10:34:01;14.20;59.50
52016;DHT22;38032;53.326;6.472;2023-02-08T10:36:32;13.60;59.60
52016;DHT22;38032;53.326;6.472;2023-02-08T10:38:59;13.30;61.20
52016;DHT22;38032;53.326;6.472;2023-02-08T10:41:33;13.00;62.00
52016;DHT22;38032;53.326;6.472;2023-02-08T10:44:02;12.60;62.00
52016;DHT22;38032;53.326;6.472;2023-02-08T10:46:34;12.20;62.20
52016;DHT22;38032;53.326;6.472;2023-02-08T10:49:17;11.90;63.30
52016;DHT22;38032;53.326;6.472;2023-02-08T10:51:46;11.50;63.00
52016;DHT22;38032;53.326;6.472;2023-02-08T10:54:13;11.30;63.80
52016;DHT22;38032;53.326;6.472;2023-02-08T10:56:47;11.00;64.50
52016;DHT22;38032;53.326;6.472;2023-02-08T10:59:20;10.90;64.60
52016;DHT22;38032;53.326;6.472;2023-02-08T11:01:48;11.00;65.90
52016;DHT22;38032;53.326;6.472;2023-02-08T11:04:15;11.30;66.50
52016;DHT22;38032;53.326;6.472;2023-02-08T11:06:43;11.80;66.30
52016;DHT22;38032;53.326;6.472;2023-02-08T11:09:27;12.10;65.70
52016;DHT22;38032;53.326;6.472;2023-02-08T11:11:54;12.50;64.30
52016;DHT22;38032;53.326;6.472;2023-02-08T11:14:26;12.70;66.30
52016;DHT22;38032;53.326;6.472;2023-02-08T11:16:57;12.90;65.50
52016;DHT22;38032;53.326;6.472;2023-02-08T11:19:37;13.10;64.60
52016;DHT22;38032;53.326;6.472;2023-02-08T11:22:17;13.20;63.00
52016;DHT22;38032;53.326;6.472;2023-02-08T11:24:44;13.30;63.10
52016;DHT22;38032;53.326;6.472;2023-02-08T11:27:17;13.30;62.60
52016;DHT22;38032;53.326;6.472;2023-02-08T11:32:43;13.00;60.40
52016;DHT22;38032;53.326;6.472;2023-02-08T11:37:47;12.70;61.40
52016;DHT22;38032;53.326;6.472;2023-02-08T11:40:20;12.50;61.40
52016;DHT22;38032;53.326;6.472;2023-02-08T11:42:46;12.50;61.40
52016;DHT22;38032;53.326;6.472;2023-02-08T11:45:22;12.30;61.20
52016;DHT22;38032;53.326;6.472;2023-02-08T11:47:49;12.10;61.00
52016;DHT22;38032;53.326;6.472;2023-02-08T11:50:34;11.90;61.30
52016;DHT22;38032;53.326;6.472;2023-02-08T11:53:03;11.70;61.20
52016;DHT22;38032;53.326;6.472;2023-02-08T11:55:31;11.60;61.90
52016;DHT22;38032;53.326;6.472;2023-02-08T12:00:33;11.60;61.90
52016;DHT22;38032;53.326;6.472;2023-02-08T12:03:04;11.50;62.20
52016;DHT22;38032;53.326;6.472;2023-02-08T12:06:08;11.50;61.80
52016;DHT22;38032;53.326;6.472;2023-02-08T12:13:50;11.00;59.70
52016;DHT22;38032;53.326;6.472;2023-02-08T12:16:31;10.90;59.80
52016;DHT22;38032;53.326;6.472;2023-02-08T12:19:25;10.70;59.70
52016;DHT22;38032;53.326;6.472;2023-02-08T12:22:24;10.50;59.30
52016;DHT22;38032;53.326;6.472;2023-02-08T12:35:46;9.60;58.50
52016;DHT22;38032;53.326;6.472;2023-02-08T12:38:33;9.40;59.00
52016;DHT22;38032;53.326;6.472;2023-02-08T12:41:30;9.20;58.90
52016;DHT22;38032;53.326;6.472;2023-02-08T12:44:08;9.10;59.50
52016;DHT22;38032;53.326;6.472;2023-02-08T12:47:16;9.00;59.60
52016;DHT22;38032;53.326;6.472;2023-02-08T12:52:36;8.90;61.40
52016;DHT22;38032;53.326;6.472;2023-02-08T12:57:43;8.80;60.30
52016;DHT22;38032;53.326;6.472;2023-02-08T13:00:24;8.80;61.00
52016;DHT22;38032;53.326;6.472;2023-02-08T13:05:37;8.80;61.70
52016;DHT22;38032;53.326;6.472;2023-02-08T13:08:28;8.70;60.60
52016;DHT22;38032;53.326;6.472;2023-02-08T13:10:59;8.70;60.70
52016;DHT22;38032;53.326;6.472;2023-02-08T13:13:29;8.60;61.00
52016;DHT22;38032;53.326;6.472;2023-02-08T13:16:01;8.60;60.80
52016;DHT22;38032;53.326;6.472;2023-02-08T13:18:32;8.60;61.60
52016;DHT22;38032;53.326;6.472;2023-02-08T13:21:02;8.60;61.30
52016;DHT22;38032;53.326;6.472;2023-02-08T13:23:35;8.60;61.60
52016;DHT22;38032;53.326;6.472;2023-02-08T13:26:07;8.60;61.50
52016;DHT22;38032;53.326;6.472;2023-02-08T13:28:34;8.60;62.40
52016;DHT22;38032;53.326;6.472;2023-02-08T13:31:07;8.60;62.90
52016;DHT22;38032;53.326;6.472;2023-02-08T13:33:44;8.70;63.10
52016;DHT22;38032;53.326;6.472;2023-02-08T13:36:28;8.70;63.80
52016;DHT22;38032;53.326;6.472;2023-02-08T13:38:57;8.70;63.40
52016;DHT22;38032;53.326;6.472;2023-02-08T13:41:25;8.70;63.80
52016;DHT22;38032;53.326;6.472;2023-02-08T13:43:57;8.70;63.50
52016;DHT22;38032;53.326;6.472;2023-02-08T13:46:27;8.70;62.90
52016;DHT22;38032;53.326;6.472;2023-02-08T13:48:57;8.70;62.30
52016;DHT22;38032;53.326;6.472;2023-02-08T13:56:39;8.60;63.10
52016;DHT22;38032;53.326;6.472;2023-02-08T14:02:19;8.60;63.10
52016;DHT22;38032;53.326;6.472;2023-02-08T14:04:50;8.60;62.60
52016;DHT22;38032;53.326;6.472;2023-02-08T14:12:50;8.60;62.30
52016;DHT22;38032;53.326;6.472;2023-02-08T14:17:49;8.60;62.90
52016;DHT22;38032;53.326;6.472;2023-02-08T14:20:29;8.60;62.60
52016;DHT22;38032;53.326;6.472;2023-02-08T14:23:02;8.60;61.80
52016;DHT22;38032;53.326;6.472;2023-02-08T14:25:39;8.60;61.70
52016;DHT22;38032;53.326;6.472;2023-02-08T14:28:06;8.60;62.00
52016;DHT22;38032;53.326;6.472;2023-02-08T14:30:50;8.50;62.30
52016;DHT22;38032;53.326;6.472;2023-02-08T14:33:20;8.50;62.00
52016;DHT22;38032;53.326;6.472;2023-02-08T14:35:59;8.40;61.70
52016;DHT22;38032;53.326;6.472;2023-02-08T14:38:50;8.40;60.90
52016;DHT22;38032;53.326;6.472;2023-02-08T14:41:47;8.30;60.40
52016;DHT22;38032;53.326;6.472;2023-02-08T14:47:10;8.20;59.70
52016;DHT22;38032;53.326;6.472;2023-02-08T14:49:41;8.10;60.00
52016;DHT22;38032;53.326;6.472;2023-02-08T14:52:13;8.00;60.40
52016;DHT22;38032;53.326;6.472;2023-02-08T14:54:43;8.00;60.10
52016;DHT22;38032;53.326;6.472;2023-02-08T14:57:27;7.90;60.40
52016;DHT22;38032;53.326;6.472;2023-02-08T14:59:58;7.80;60.30
52016;DHT22;38032;53.326;6.472;2023-02-08T15:02:27;7.80;60.40
52016;DHT22;38032;53.326;6.472;2023-02-08T15:04:57;7.70;60.20
52016;DHT22;38032;53.326;6.472;2023-02-08T15:07:33;7.70;60.00
52016;DHT22;38032;53.326;6.472;2023-02-08T15:10:04;7.60;59.70
52016;DHT22;38032;53.326;6.472;2023-02-08T15:12:37;7.50;60.00
52016;DHT22;38032;53.326;6.472;2023-02-08T15:15:05;7.50;60.00
52016;DHT22;38032;53.326;6.472;2023-02-08T15:17:42;7.40;60.50
52016;DHT22;38032;53.326;6.472;2023-02-08T15:20:19;7.40;61.30
52016;DHT22;38032;53.326;6.472;2023-02-08T15:22:45;7.30;61.30
52016;DHT22;38032;53.326;6.472;2023-02-08T15:25:22;7.30;61.80
52016;DHT22;38032;53.326;6.472;2023-02-08T15:27:51;7.30;62.20
52016;DHT22;38032;53.326;6.472;2023-02-08T15:30:22;7.20;62.50
52016;DHT22;38032;53.326;6.472;2023-02-08T15:32:48;7.10;62.70
52016;DHT22;38032;53.326;6.472;2023-02-08T15:35:17;7.10;63.00
52016;DHT22;38032;53.326;6.472;2023-02-08T15:37:45;7.00;62.70
52016;DHT22;38032;53.326;6.472;2023-02-08T15:42:52;6.90;63.40
52016;DHT22;38032;53.326;6.472;2023-02-08T15:45:22;7.00;82.90
52016;DHT22;38032;53.326;6.472;2023-02-08T15:47:49;6.80;74.20
52016;DHT22;38032;53.326;6.472;2023-02-08T15:50:19;6.60;64.80
52016;DHT22;38032;53.326;6.472;2023-02-08T15:52:46;6.90;69.50
52016;DHT22;38032;53.326;6.472;2023-02-08T15:55:15;6.70;63.90
52016;DHT22;38032;53.326;6.472;2023-02-08T15:57:56;6.50;63.90
52016;DHT22;38032;53.326;6.472;2023-02-08T16:00:25;6.50;64.20
52016;DHT22;38032;53.326;6.472;2023-02-08T16:02:57;6.40;64.50
52016;DHT22;38032;53.326;6.472;2023-02-08T16:05:27;6.40;64.80
52016;DHT22;38032;53.326;6.472;2023-02-08T16:07:54;6.40;65.10
52016;DHT22;38032;53.326;6.472;2023-02-08T16:10:41;6.40;65.20
52016;DHT22;38032;53.326;6.472;2023-02-08T16:13:20;6.30;64.90
52016;DHT22;38032;53.326;6.472;2023-02-08T16:15:49;6.30;64.90
52016;DHT22;38032;53.326;6.472;2023-02-08T16:18:40;6.30;64.90
52016;DHT22;38032;53.326;6.472;2023-02-08T16:23:51;6.10;64.70
52016;DHT22;38032;53.326;6.472;2023-02-08T16:26:23;6.00;64.80
52016;DHT22;38032;53.326;6.472;2023-02-08T16:28:52;5.90;64.70
52016;DHT22;38032;53.326;6.472;2023-02-08T16:31:22;5.80;64.70
52016;DHT22;38032;53.326;6.472;2023-02-08T16:34:00;5.70;65.40
52016;DHT22;38032;53.326;6.472;2023-02-08T16:36:33;5.50;64.90
52016;DHT22;38032;53.326;6.472;2023-02-08T16:39:20;5.40;65.30
52016;DHT22;38032;53.326;6.472;2023-02-08T16:44:26;5.30;65.90
52016;DHT22;38032;53.326;6.472;2023-02-08T16:46:52;5.30;66.00
52016;DHT22;38032;53.326;6.472;2023-02-08T16:49:18;5.20;66.10
52016;DHT22;38032;53.326;6.472;2023-02-08T16:51:44;5.20;66.30
52016;DHT22;38032;53.326;6.472;2023-02-08T16:54:14;5.10;66.30
52016;DHT22;38032;53.326;6.472;2023-02-08T16:56:41;5.10;66.30
52016;DHT22;38032;53.326;6.472;2023-02-08T16:59:09;5.10;66.30
52016;DHT22;38032;53.326;6.472;2023-02-08T17:01:35;5.10;66.40
52016;DHT22;38032;53.326;6.472;2023-02-08T17:04:02;5.00;66.40
52016;DHT22;38032;53.326;6.472;2023-02-08T17:06:32;5.00;66.50
52016;DHT22;38032;53.326;6.472;2023-02-08T17:08:59;5.00;66.40
52016;DHT22;38032;53.326;6.472;2023-02-08T17:11:26;5.10;66.60
52016;DHT22;38032;53.326;6.472;2023-02-08T17:13:52;5.00;66.50
52016;DHT22;38032;53.326;6.472;2023-02-08T17:16:20;5.00;66.40
52016;DHT22;38032;53.326;6.472;2023-02-08T17:18:47;5.00;66.40
52016;DHT22;38032;53.326;6.472;2023-02-08T17:21:13;5.00;66.50
52016;DHT22;38032;53.326;6.472;2023-02-08T17:23:39;4.90;66.90
52016;DHT22;38032;53.326;6.472;2023-02-08T17:26:12;4.70;67.80
52016;DHT22;38032;53.326;6.472;2023-02-08T17:28:39;4.60;68.50
52016;DHT22;38032;53.326;6.472;2023-02-08T17:31:05;4.50;68.90
52016;DHT22;38032;53.326;6.472;2023-02-08T17:33:31;4.50;69.20
52016;DHT22;38032;53.326;6.472;2023-02-08T17:36:01;4.40;68.90
52016;DHT22;38032;53.326;6.472;2023-02-08T17:38:27;4.40;69.10